createdAt,value
2019-05-11T00:02:28.577Z,17.12
2019-05-11T00:04:58.547Z,23.95
2019-05-11T00:07:28.649Z,21.50
2019-05-11T00:09:58.771Z,24.72
2019-05-11T00:12:28.911Z,19.10
2019-05-11T00:14:58.743Z,21.93
2019-05-11T00:17:28.982Z,19.25
2019-05-11T00:19:58.826Z,17.77
2019-05-11T00:22:28.654Z,22.20
2019-05-11T00:24:58.571Z,22.60
2019-05-11T00:27:28.611Z,26.52
2019-05-11T00:29:58.528Z,24.67
2019-05-11T00:32:29.057Z,18.12
2019-05-11T00:34:59.115Z,21.10
2019-05-11T00:37:29.121Z,20.75
2019-05-11T00:40:13.348Z,28.35
2019-05-11T00:42:31.087Z,18.05
2019-05-11T00:45:00.939Z,27.48
2019-05-11T00:47:31.867Z,18.67
2019-05-11T00:50:08.864Z,18.62
2019-05-11T00:52:38.992Z,21.48
2019-05-11T00:55:09.108Z,19.82
2019-05-11T00:57:39.036Z,18.80
2019-05-11T01:00:10.175Z,22.13
2019-05-11T01:02:39.955Z,20.65
2019-05-11T01:05:10.593Z,19.37
2019-05-11T01:07:40.343Z,18.32
2019-05-11T01:10:23.813Z,17.87
2019-05-11T01:12:43.885Z,18.98
2019-05-11T01:15:14.072Z,15.48
2019-05-11T01:17:43.863Z,16.00
2019-05-11T01:20:18.463Z,13.28
2019-05-11T01:22:47.520Z,20.12
2019-05-11T01:25:18.240Z,17.17
2019-05-11T01:27:48.723Z,15.70
2019-05-11T01:30:18.696Z,17.52
2019-05-11T01:32:48.496Z,18.02
2019-05-11T01:35:18.440Z,19.48
2019-05-11T01:37:48.184Z,24.00
2019-05-11T01:40:18.719Z,22.85
2019-05-11T01:42:48.550Z,24.18
2019-05-11T01:45:18.336Z,21.50
2019-05-11T01:47:48.142Z,25.30
2019-05-11T01:50:17.981Z,31.62
2019-05-11T01:52:48.021Z,24.02
2019-05-11T01:55:18.146Z,23.02
2019-05-11T01:57:48.293Z,19.73
2019-05-11T02:00:18.180Z,20.85
2019-05-11T02:02:47.977Z,22.75
2019-05-11T02:05:30.759Z,23.27
2019-05-11T02:08:02.117Z,19.35
2019-05-11T02:10:32.988Z,15.18
2019-05-11T02:13:02.874Z,18.55
2019-05-11T02:15:32.658Z,16.75
2019-05-11T02:18:02.611Z,16.80
2019-05-11T02:20:32.689Z,22.45
2019-05-11T02:23:02.576Z,18.52
2019-05-11T02:25:33.892Z,20.27
2019-05-11T02:28:04.831Z,17.25
2019-05-11T02:30:34.613Z,20.45
2019-05-11T02:33:05.279Z,23.22
2019-05-11T02:35:35.096Z,17.70
2019-05-11T02:38:04.892Z,17.35
2019-05-11T02:40:35.539Z,17.95
2019-05-11T02:43:05.350Z,17.12
2019-05-11T02:45:40.672Z,20.25
2019-05-11T02:48:10.570Z,19.73
2019-05-11T02:50:41.040Z,17.77
2019-05-11T02:53:11.564Z,18.90
2019-05-11T02:55:41.371Z,24.82
2019-05-11T02:58:11.333Z,19.20
2019-05-11T03:00:43.846Z,15.78
2019-05-11T03:03:13.657Z,25.68
2019-05-11T03:05:44.302Z,17.57
2019-05-11T03:08:14.181Z,16.17
2019-05-11T03:10:43.973Z,20.37
2019-05-11T03:13:14.290Z,18.60
2019-05-11T03:15:44.069Z,21.62
2019-05-11T03:18:13.849Z,21.57
2019-05-11T03:20:43.987Z,22.25
2019-05-11T03:23:13.789Z,23.67
2019-05-11T03:25:43.579Z,22.00
2019-05-11T03:28:14.044Z,20.15
2019-05-11T03:30:43.923Z,20.52
2019-05-11T03:33:13.710Z,26.27
2019-05-11T03:35:44.029Z,25.83
2019-05-11T03:38:13.865Z,26.50
2019-05-11T03:40:44.517Z,27.48
2019-05-11T03:43:14.338Z,31.60
2019-05-11T03:45:44.116Z,32.33
2019-05-11T03:48:14.536Z,30.40
2019-05-11T03:50:44.368Z,30.43
2019-05-11T03:53:14.156Z,31.50
2019-05-11T03:55:44.389Z,29.25
2019-05-11T03:58:14.259Z,26.02
2019-05-11T04:00:44.063Z,33.08
2019-05-11T04:03:14.325Z,31.62
2019-05-11T04:05:44.219Z,28.35
2019-05-11T04:08:14.016Z,29.23
2019-05-11T04:10:44.144Z,33.55
2019-05-11T04:13:14.067Z,30.17
2019-05-11T04:15:43.910Z,26.82
2019-05-11T04:18:14.038Z,26.57
2019-05-11T04:20:43.871Z,34.95
2019-05-11T04:23:13.656Z,28.35
2019-05-11T04:25:44.447Z,31.65
2019-05-11T04:28:14.387Z,31.27
2019-05-11T04:30:44.415Z,28.75
2019-05-11T04:33:14.198Z,33.42
2019-05-11T04:35:44.055Z,34.58
2019-05-11T04:38:14.250Z,32.63
2019-05-11T04:40:44.050Z,25.45
2019-05-11T04:43:13.875Z,37.42
2019-05-11T04:45:44.234Z,31.97
2019-05-11T04:48:14.188Z,28.90
2019-05-11T04:50:44.084Z,33.23
2019-05-11T04:53:13.950Z,29.25
2019-05-11T04:55:43.763Z,33.73
2019-05-11T04:58:13.572Z,36.68
2019-05-11T05:00:43.925Z,34.45
2019-05-11T05:03:13.696Z,32.73
2019-05-11T05:05:43.519Z,35.25
2019-05-11T05:08:13.978Z,25.50
2019-05-11T05:10:43.855Z,32.13
2019-05-11T05:13:13.719Z,30.02
2019-05-11T05:15:43.511Z,28.65
2019-05-11T05:18:13.472Z,32.23
2019-05-11T05:20:49.104Z,30.30
2019-05-11T05:23:18.932Z,31.52
2019-05-11T05:25:48.697Z,35.83
2019-05-11T05:28:23.226Z,27.55
2019-05-11T05:30:53.641Z,30.95
2019-05-11T05:33:23.447Z,31.85
2019-05-11T05:35:53.256Z,33.98
2019-05-11T05:38:23.389Z,30.92
2019-05-11T05:40:53.188Z,28.90
2019-05-11T05:43:27.879Z,27.48
2019-05-11T05:45:54.432Z,32.95
2019-05-11T05:48:24.574Z,33.73
2019-05-11T05:50:54.409Z,26.37
2019-05-11T05:53:24.202Z,31.93
2019-05-11T05:55:54.603Z,31.50
2019-05-11T05:58:24.578Z,30.92
2019-05-11T06:00:54.897Z,27.20
2019-05-11T06:03:25.991Z,30.48
2019-05-11T06:05:56.044Z,27.37
2019-05-11T06:08:26.374Z,24.35
2019-05-11T06:10:56.186Z,24.43
2019-05-11T06:13:42.783Z,27.85
2019-05-11T06:15:58.509Z,29.37
2019-05-11T06:18:28.620Z,29.25
2019-05-11T06:20:58.669Z,22.73
2019-05-11T06:23:28.746Z,29.10
2019-05-11T06:25:58.606Z,24.37
2019-05-11T06:28:28.419Z,24.87
2019-05-11T06:30:58.595Z,26.87
2019-05-11T06:33:28.384Z,17.87
2019-05-11T06:35:58.268Z,23.87
2019-05-11T06:38:28.619Z,22.50
2019-05-11T06:40:58.407Z,23.07
2019-05-11T06:43:28.247Z,26.25
2019-05-11T06:45:58.415Z,22.25
2019-05-11T06:48:28.449Z,23.95
2019-05-11T06:50:58.364Z,27.67
2019-05-11T06:53:28.710Z,19.30
2019-05-11T06:55:58.578Z,23.52
2019-05-11T06:58:28.490Z,21.80
2019-05-11T07:00:58.268Z,27.22
2019-05-11T07:03:28.143Z,19.65
2019-05-11T07:05:57.962Z,27.07
2019-05-11T07:08:28.036Z,22.17
2019-05-11T07:10:57.820Z,22.25
2019-05-11T07:13:27.652Z,22.67
2019-05-11T07:15:57.980Z,18.45
2019-05-11T07:18:27.769Z,14.63
2019-05-11T07:20:57.597Z,15.65
2019-05-11T07:23:27.806Z,16.60
2019-05-11T07:26:00.141Z,16.12
2019-05-11T07:28:29.086Z,15.98
2019-05-11T07:30:59.161Z,11.63
2019-05-11T07:33:28.975Z,13.85
2019-05-11T07:35:58.818Z,10.30
2019-05-11T07:38:29.211Z,14.05
2019-05-11T07:40:59.086Z,15.58
2019-05-11T07:43:28.947Z,11.97
2019-05-11T07:46:01.436Z,15.65
2019-05-11T07:48:35.317Z,17.24
2019-05-11T07:51:05.765Z,18.30
2019-05-11T07:53:37.923Z,14.90
2019-05-11T07:56:08.313Z,14.73
2019-05-11T07:58:39.086Z,20.25
2019-05-11T08:01:09.563Z,13.30
2019-05-11T08:03:39.869Z,14.83
2019-05-11T08:06:09.678Z,19.45
2019-05-11T08:08:39.866Z,17.52
2019-05-11T08:11:09.765Z,20.88
2019-05-11T08:13:39.565Z,15.78
2019-05-11T08:16:09.530Z,10.88
2019-05-11T08:18:39.548Z,12.58
2019-05-11T08:21:09.491Z,13.32
2019-05-11T08:23:39.412Z,16.10
2019-05-11T08:26:09.292Z,8.75
2019-05-11T08:28:39.722Z,11.97
2019-05-11T08:34:04.907Z,11.10
2019-05-11T08:36:37.679Z,15.18
2019-05-11T08:39:08.065Z,9.60
2019-05-11T08:41:38.617Z,7.22
2019-05-11T08:44:09.269Z,11.45
2019-05-11T08:46:39.834Z,15.10
2019-05-11T08:49:15.347Z,8.30
2019-05-11T08:51:43.971Z,8.43
2019-05-11T08:54:13.768Z,9.15
2019-05-11T08:56:43.610Z,7.50
2019-05-11T08:59:13.838Z,12.65
2019-05-11T09:01:44.749Z,9.13
2019-05-11T09:04:14.830Z,12.53
2019-05-11T09:06:44.653Z,14.95
2019-05-11T09:09:14.892Z,10.00
2019-05-11T09:11:44.810Z,9.40
2019-05-11T09:14:14.596Z,11.63
2019-05-11T09:16:44.411Z,8.13
2019-05-11T09:19:14.311Z,10.05
2019-05-11T09:21:44.414Z,9.25
2019-05-11T09:24:14.244Z,8.00
2019-05-11T09:26:44.410Z,10.93
2019-05-11T09:29:14.436Z,9.33
2019-05-11T09:31:44.222Z,6.95
2019-05-11T09:34:14.501Z,9.53
2019-05-11T09:36:44.288Z,9.60
2019-05-11T09:39:14.168Z,9.45
2019-05-11T09:41:44.060Z,10.15
2019-05-11T09:44:13.869Z,7.47
2019-05-11T09:46:44.249Z,7.53
2019-05-11T09:49:14.275Z,6.60
2019-05-11T09:51:44.727Z,8.73
2019-05-11T09:54:14.591Z,9.60
2019-05-11T09:56:44.431Z,11.28
2019-05-11T09:59:14.218Z,11.50
2019-05-11T10:01:44.088Z,7.62
2019-05-11T10:04:13.905Z,12.07
2019-05-11T10:06:44.795Z,7.17
2019-05-11T10:09:14.622Z,10.30
2019-05-11T10:11:44.444Z,8.30
2019-05-11T10:14:14.677Z,9.95
2019-05-11T10:16:44.535Z,10.20
2019-05-11T10:19:14.398Z,7.47
2019-05-11T10:21:44.387Z,8.45
2019-05-11T10:24:14.167Z,14.18
2019-05-11T10:26:44.066Z,8.93
2019-05-11T10:29:13.863Z,8.28
2019-05-11T10:31:43.644Z,9.83
2019-05-11T10:34:13.472Z,7.58
2019-05-11T10:36:43.494Z,8.38
2019-05-11T10:39:13.354Z,9.58
2019-05-11T10:41:43.539Z,7.87
2019-05-11T10:44:13.335Z,6.60
2019-05-11T10:46:43.116Z,7.92
2019-05-11T10:49:13.288Z,9.08
2019-05-11T10:51:43.200Z,8.53
2019-05-11T10:54:13.310Z,8.15
2019-05-11T10:56:43.390Z,7.80
2019-05-11T10:59:15.579Z,6.12
2019-05-11T11:01:44.615Z,10.32
2019-05-11T11:04:14.890Z,9.40
2019-05-11T11:06:45.824Z,8.00
2019-05-11T11:09:17.750Z,8.15
2019-05-11T11:11:48.850Z,7.20
2019-05-11T11:14:19.137Z,7.08
2019-05-11T11:16:48.942Z,6.00
2019-05-11T11:19:20.658Z,8.10
2019-05-11T11:21:50.475Z,8.85
2019-05-11T11:24:20.672Z,5.15
2019-05-11T11:26:50.569Z,4.35
2019-05-11T11:29:20.351Z,4.58
2019-05-11T11:31:50.341Z,3.50
2019-05-11T11:34:20.159Z,3.12
2019-05-11T11:36:50.196Z,3.30
2019-05-11T11:39:20.019Z,3.37
2019-05-11T11:41:49.849Z,9.10
2019-05-11T11:44:20.086Z,4.05
2019-05-11T11:46:54.986Z,4.58
2019-05-11T11:49:21.327Z,8.78
2019-05-11T11:51:51.302Z,4.90
2019-05-11T11:54:21.448Z,7.28
2019-05-11T11:56:51.271Z,7.50
2019-05-11T11:59:21.067Z,5.92
2019-05-11T12:01:51.545Z,5.78
2019-05-11T12:04:22.120Z,6.60
2019-05-11T12:06:52.223Z,8.28
2019-05-11T12:09:22.143Z,6.62
2019-05-11T12:11:52.188Z,5.20
2019-05-11T12:14:22.052Z,3.37
2019-05-11T12:17:03.872Z,3.70
2019-05-11T12:19:23.906Z,2.33
2019-05-11T12:21:54.653Z,3.27
2019-05-11T12:24:24.427Z,2.15
2019-05-11T12:26:54.263Z,3.35
2019-05-11T12:29:24.044Z,2.00
2019-05-11T12:31:54.095Z,1.98
2019-05-11T12:34:28.303Z,1.82
2019-05-11T12:36:58.244Z,2.37
2019-05-11T12:39:28.714Z,5.75
2019-05-11T12:41:58.537Z,6.58
2019-05-11T12:44:28.572Z,3.05
2019-05-11T12:46:58.536Z,3.80
2019-05-11T12:49:28.996Z,3.17
2019-05-11T12:51:59.499Z,4.67
2019-05-11T12:54:29.915Z,4.28
2019-05-11T12:56:59.769Z,4.60
2019-05-11T12:59:30.073Z,5.17
2019-05-11T13:02:08.197Z,3.50
2019-05-11T13:04:38.484Z,3.47
2019-05-11T13:07:08.859Z,4.58
2019-05-11T13:09:38.758Z,5.87
2019-05-11T13:12:08.562Z,5.35
2019-05-11T13:14:38.795Z,7.72
2019-05-11T13:17:08.630Z,4.45
2019-05-11T13:19:38.673Z,3.52
2019-05-11T13:22:08.629Z,2.08
2019-05-11T13:24:38.563Z,6.72
2019-05-11T13:27:09.284Z,5.83
2019-05-11T13:29:39.434Z,9.00
2019-05-11T13:32:09.770Z,7.03
2019-05-11T13:34:40.898Z,8.03
2019-05-11T13:37:11.725Z,5.83
2019-05-11T13:39:41.526Z,5.40
2019-05-11T13:42:12.331Z,7.87
2019-05-11T13:44:42.156Z,5.17
2019-05-11T13:47:11.938Z,7.28
2019-05-11T13:49:42.267Z,7.72
2019-05-11T13:52:12.075Z,11.80
2019-05-11T13:54:41.874Z,13.60
2019-05-11T13:57:12.034Z,15.40
2019-05-11T13:59:41.853Z,10.60
2019-05-11T14:02:11.721Z,13.72
2019-05-11T14:04:41.907Z,9.58
2019-05-11T14:07:11.732Z,7.70
2019-05-11T14:09:41.595Z,5.60
2019-05-11T14:12:11.885Z,10.48
2019-05-11T14:14:41.730Z,7.55
2019-05-11T14:17:12.682Z,7.60
2019-05-11T14:19:42.522Z,6.50
2019-05-11T14:22:12.303Z,5.75
2019-05-11T14:24:42.100Z,4.60
2019-05-11T14:27:12.202Z,6.17
2019-05-11T14:29:42.102Z,7.08
2019-05-11T14:32:11.891Z,4.40
2019-05-11T14:34:42.606Z,5.30
2019-05-11T14:37:12.566Z,5.58
2019-05-11T14:39:42.625Z,3.42
2019-05-11T14:42:12.402Z,5.08
2019-05-11T14:44:42.230Z,5.30
2019-05-11T14:47:12.506Z,4.12
2019-05-11T14:49:42.290Z,6.17
2019-05-11T14:52:12.100Z,3.47
2019-05-11T14:54:42.239Z,5.40
2019-05-11T14:57:13.123Z,5.10
2019-05-11T14:59:42.958Z,6.35
2019-05-11T15:02:30.552Z,4.42
2019-05-11T15:05:01.562Z,5.40
2019-05-11T15:07:32.280Z,4.15
2019-05-11T15:10:02.076Z,4.92
2019-05-11T15:12:31.913Z,4.50
2019-05-11T15:15:02.263Z,5.97
2019-05-11T15:17:32.208Z,5.40
2019-05-11T15:20:02.043Z,6.08
2019-05-11T15:22:32.090Z,5.00
2019-05-11T15:25:01.901Z,7.30
2019-05-11T15:27:32.878Z,5.53
2019-05-11T15:30:02.669Z,6.58
2019-05-11T15:32:33.315Z,6.35
2019-05-11T15:35:03.242Z,12.20
2019-05-11T15:37:33.420Z,6.80
2019-05-11T15:40:13.091Z,6.08
2019-05-11T15:42:43.334Z,5.67
2019-05-11T15:45:14.284Z,7.72
2019-05-11T15:47:44.288Z,5.92
2019-05-11T15:50:15.292Z,5.42
2019-05-11T15:52:45.080Z,5.03
2019-05-11T15:55:18.596Z,6.25
2019-05-11T15:57:48.610Z,5.33
2019-05-11T16:00:19.659Z,7.28
2019-05-11T16:02:49.485Z,5.95
2019-05-11T16:05:19.525Z,5.70
2019-05-11T16:07:49.615Z,4.92
2019-05-11T16:10:19.479Z,6.15
2019-05-11T16:12:49.281Z,4.97
2019-05-11T16:15:19.952Z,9.58
2019-05-11T16:17:50.221Z,6.45
2019-05-11T16:20:20.017Z,4.85
2019-05-11T16:22:49.790Z,5.45
2019-05-11T16:25:20.292Z,3.70
2019-05-11T16:27:50.426Z,4.62
2019-05-11T16:30:21.591Z,3.80
2019-05-11T16:32:51.857Z,4.85
2019-05-11T16:35:21.630Z,5.17
2019-05-11T16:37:51.716Z,9.88
2019-05-11T16:40:22.290Z,3.52
2019-05-11T16:42:52.153Z,4.92
2019-05-11T16:45:24.046Z,4.85
2019-05-11T16:47:54.011Z,4.85
2019-05-11T16:50:24.218Z,7.35
2019-05-11T16:52:54.005Z,6.10
2019-05-11T16:55:23.901Z,4.78
2019-05-11T16:57:55.474Z,6.65
2019-05-11T17:00:25.323Z,6.03
2019-05-11T17:02:57.528Z,4.12
2019-05-11T17:05:29.909Z,7.22
2019-05-11T17:07:58.743Z,4.40
2019-05-11T17:10:28.675Z,8.48
2019-05-11T17:12:59.253Z,7.25
2019-05-11T17:15:29.959Z,6.10
2019-05-11T17:18:00.150Z,9.60
2019-05-11T17:20:29.939Z,9.45
2019-05-11T17:23:00.697Z,8.40
2019-05-11T17:25:30.511Z,8.43
2019-05-11T17:28:00.590Z,8.28
2019-05-11T17:30:30.609Z,9.85
2019-05-11T17:33:00.478Z,7.65
2019-05-11T17:35:30.422Z,8.63
2019-05-11T17:38:00.739Z,7.00
2019-05-11T17:40:32.754Z,9.10
2019-05-11T17:43:02.541Z,12.03
2019-05-11T17:45:33.165Z,39.67
2019-05-11T17:48:03.062Z,20.12
2019-05-11T17:50:32.868Z,30.37
2019-05-11T17:53:03.155Z,19.65
2019-05-11T17:55:33.953Z,16.65
2019-05-11T17:58:05.787Z,9.00
2019-05-11T18:00:35.718Z,10.25
2019-05-11T18:03:10.210Z,6.15
2019-05-11T18:05:37.927Z,6.03
2019-05-11T18:08:08.801Z,7.67
2019-05-11T18:10:38.795Z,10.80
2019-05-11T18:13:09.693Z,6.62
2019-05-11T18:15:40.227Z,9.10
2019-05-11T18:18:10.281Z,9.45
2019-05-11T18:20:40.504Z,12.65
2019-05-11T18:23:10.303Z,11.63
2019-05-11T18:25:41.053Z,9.08
2019-05-11T18:28:14.214Z,10.23
2019-05-11T18:30:43.542Z,8.65
2019-05-11T18:33:13.401Z,11.22
2019-05-11T18:35:43.170Z,7.95
2019-05-11T18:38:13.155Z,7.05
2019-05-11T18:40:42.980Z,13.75
2019-05-11T18:43:12.883Z,12.70
2019-05-11T18:45:42.694Z,9.08
2019-05-11T18:48:12.948Z,12.70
2019-05-11T18:50:43.682Z,10.32
2019-05-11T18:53:13.486Z,14.65
2019-05-11T18:55:43.439Z,15.78
2019-05-11T18:58:13.311Z,16.90
2019-05-11T19:00:43.258Z,14.40
2019-05-11T19:03:13.127Z,17.48
2019-05-11T19:05:43.008Z,18.12
2019-05-11T19:08:13.178Z,12.13
2019-05-11T19:10:43.060Z,11.05
2019-05-11T19:13:13.367Z,10.98
2019-05-11T19:15:44.162Z,14.43
2019-05-11T19:18:14.096Z,12.43
2019-05-11T19:20:46.099Z,13.90
2019-05-11T19:23:15.327Z,12.58
2019-05-11T19:25:47.864Z,11.73
2019-05-11T19:28:18.773Z,10.88
2019-05-11T19:30:49.260Z,11.78
2019-05-11T19:33:19.261Z,11.30
2019-05-11T19:35:49.383Z,13.75
2019-05-11T19:38:20.366Z,22.82
2019-05-11T19:40:51.070Z,7.17
2019-05-11T19:43:20.849Z,4.55
2019-05-11T19:45:50.636Z,7.60
2019-05-11T19:48:21.486Z,7.53
2019-05-11T19:51:03.768Z,11.18
2019-05-11T19:53:22.702Z,10.80
2019-05-11T19:55:52.524Z,11.63
2019-05-11T19:58:23.551Z,8.40
2019-05-11T20:00:53.536Z,13.32
2019-05-11T20:03:23.367Z,11.05
2019-05-11T20:05:53.899Z,9.00
2019-05-11T20:08:24.792Z,11.43
2019-05-11T20:10:54.622Z,17.85
2019-05-11T20:13:24.707Z,11.57
2019-05-11T20:15:55.187Z,13.20
2019-05-11T20:18:25.147Z,13.13
2019-05-11T20:20:55.310Z,14.47
2019-05-11T20:23:25.287Z,9.33
2019-05-11T20:25:58.072Z,10.63
2019-05-11T20:28:28.516Z,43.13
2019-05-11T20:30:58.872Z,28.20
2019-05-11T20:33:28.828Z,36.05
2019-05-11T20:35:59.360Z,35.75
2019-05-11T20:38:29.928Z,38.42
2019-05-11T20:40:59.751Z,21.87
2019-05-11T20:43:30.504Z,20.17
2019-05-11T20:46:00.356Z,19.82
2019-05-11T20:48:30.376Z,18.20
2019-05-11T20:51:00.475Z,16.17
2019-05-11T20:53:31.315Z,19.25
2019-05-11T20:56:01.559Z,15.63
2019-05-11T20:58:34.044Z,13.15
2019-05-11T21:01:03.895Z,15.20
2019-05-11T21:03:33.725Z,13.78
2019-05-11T21:06:03.596Z,15.25
2019-05-11T21:08:34.475Z,15.72
2019-05-11T21:11:04.285Z,17.70
2019-05-11T21:13:34.139Z,17.50
2019-05-11T21:16:04.112Z,15.23
2019-05-11T21:18:39.692Z,14.02
2019-05-11T21:21:09.493Z,14.43
2019-05-11T21:23:40.726Z,21.57
2019-05-11T21:26:10.799Z,18.35
2019-05-11T21:28:41.194Z,17.00
2019-05-11T21:31:10.991Z,15.60
2019-05-11T21:33:40.834Z,16.73
2019-05-11T21:36:10.610Z,17.67
2019-05-11T21:38:41.275Z,18.77
2019-05-11T21:41:11.104Z,18.92
2019-05-11T21:43:42.037Z,17.37
2019-05-11T21:46:12.873Z,18.82
2019-05-11T21:48:42.896Z,16.70
2019-05-11T21:51:12.750Z,16.40
2019-05-11T21:53:42.706Z,16.77
2019-05-11T21:56:12.954Z,16.30
2019-05-11T21:58:42.983Z,16.57
2019-05-11T22:01:12.841Z,15.90
2019-05-11T22:03:42.667Z,15.00
2019-05-11T22:06:12.893Z,15.30
2019-05-11T22:08:42.749Z,15.85
2019-05-11T22:11:14.235Z,17.67
2019-05-11T22:13:44.319Z,16.65
2019-05-11T22:16:14.154Z,20.50
2019-05-11T22:18:44.513Z,24.85
2019-05-11T22:21:14.306Z,16.73
2019-05-11T22:23:44.105Z,17.15
2019-05-11T22:26:14.779Z,19.42
2019-05-11T22:28:44.820Z,15.10
2019-05-11T22:31:14.591Z,13.15
2019-05-11T22:33:44.964Z,12.70
2019-05-11T22:36:14.744Z,14.25
2019-05-11T22:38:48.160Z,14.10
2019-05-11T22:41:18.234Z,16.05
2019-05-11T22:43:48.632Z,11.80
2019-05-11T22:46:18.569Z,12.70
2019-05-11T22:48:48.979Z,14.47
2019-05-11T22:51:19.059Z,19.27
2019-05-11T22:53:50.432Z,17.07
2019-05-11T22:56:20.308Z,16.23
2019-05-11T22:58:50.110Z,19.52
2019-05-11T23:01:20.549Z,17.62
2019-05-11T23:03:50.541Z,18.50
2019-05-11T23:06:20.291Z,16.23
2019-05-11T23:08:53.991Z,16.62
2019-05-11T23:11:22.938Z,17.65
2019-05-11T23:13:52.850Z,17.65
2019-05-11T23:16:22.813Z,18.87
2019-05-11T23:18:53.028Z,17.80
2019-05-11T23:21:22.825Z,16.45
2019-05-11T23:23:52.652Z,18.70
2019-05-11T23:26:22.666Z,17.60
2019-05-11T23:28:52.793Z,14.18
2019-05-11T23:31:22.663Z,17.02
2019-05-11T23:33:52.483Z,16.32
2019-05-11T23:36:22.504Z,21.05
2019-05-11T23:38:52.300Z,15.90
2019-05-11T23:41:24.966Z,22.45
2019-05-11T23:43:54.111Z,18.35
2019-05-11T23:46:23.953Z,15.00
2019-05-11T23:48:54.237Z,15.18
2019-05-11T23:51:24.020Z,14.87
2019-05-11T23:53:53.812Z,14.73
2019-05-11T23:56:24.109Z,13.15
2019-05-11T23:58:53.972Z,15.08
